Celebrity Century — 9HJI9 — position and weather

sailwx.info

Track history (hours):
 
Tides and Currents Weather Stations Pressure Air Temp Water Temp Dewpoint Dewpoint Depression Visibility Wind Speed Wind Dir Waves Ship Positions

Celebrity Century

Last reported at 2018-May-23 17:41 UTC. Time now 2018-May-24 13:55 UTC.
Position N 24°21' E 118°49'.

Length 251 m; draft 8 m.

Type: Ship. MMSI: 249054000.

Date/timePositionNaut miles runAvg speedWind from/ knotsBaromVisibWave heightAir tempDewpointWater temp
2018-May-23 17:41N 24°21' E 118°49'317.1
2018-May-23 17:30N 24°20' E 118°46'917.3
2018-May-23 17:00N 24°18' E 118°37'816.9
2018-May-23 16:30N 24°14' E 118°29'816.7
2018-May-23 16:00N 24°16' E 118°20'815.7
2018-May-23 15:30N 24°19' E 118°12'714.5
2018-May-23 15:00N 24°24' E 118°06'510.3
2018-May-23 14:30N 24°28' E 118°03'1 2.8
2018-May-23 13:59N 24°29' E 118°04'2 4.4
2018-May-23 13:30N 24°28' E 118°03'612.4
2018-May-23 13:00N 24°23' E 118°07'713.3
2018-May-23 12:30N 24°18' E 118°12'917.6
2018-May-23 12:00N 24°16' E 118°22'918.4
2018-May-23 11:30N 24°15' E 118°32'4 7.1
2018-May-23 10:54N 24°17' E 118°36'513.4
2018-May-23 10:30N 24°15' E 118°31'713.5
2018-May-23 10:00N 24°15' E 118°23'714.7
2018-May-23 09:30N 24°17' E 118°16'713.2
2018-May-23 09:00N 24°21' E 118°10'4 8.7
2018-May-23 08:30N 24°24' E 118°06'510.6
2018-May-23 08:00N 24°28' E 118°03'1 2.6
2018-May-23 07:29N 24°29' E 118°04'0 0.0
2018-May-23 06:59N 24°29' E 118°04'0 0.0
2018-May-23 06:26N 24°29' E 118°04'0 0.0
2018-May-23 05:59N 24°29' E 118°04'0 0.0
2018-May-23 05:29N 24°29' E 118°04'0 0.0
2018-May-23 04:59N 24°29' E 118°04'0 0.0
2018-May-23 04:29N 24°29' E 118°04'0 0.0
2018-May-23 03:59N 24°29' E 118°04'0 0.0
2018-May-23 03:26N 24°29' E 118°04'0 0.0
2018-May-23 02:59N 24°29' E 118°04'0 0.0
2018-May-23 02:26N 24°29' E 118°04'0 0.0
2018-May-23 01:59N 24°29' E 118°04'0 0.0
2018-May-23 01:29N 24°29' E 118°04'0 0.0
2018-May-23 00:56N 24°29' E 118°04'0 0.0
2018-May-23 00:26N 24°29' E 118°04'0 0.0
2018-May-22 23:59N 24°29' E 118°04'0 0.0
2018-May-22 23:30N 24°29' E 118°04'4 7.3
2018-May-22 23:01N 24°26' E 118°04'713.3
2018-May-22 22:30N 24°21' E 118°09'714.5
2018-May-22 22:00N 24°16' E 118°14'713.0
2018-May-22 21:31N 24°11' E 118°19'815.9
2018-May-22 21:00N 24°04' E 118°23'816.5
2018-May-22 20:31N 23°56' E 118°26'816.7
2018-May-22 20:00N 23°50' E 118°32'816.8
2018-May-22 19:30N 23°43' E 118°37'917.3
2018-May-22 19:00N 23°35' E 118°42'816.7
2018-May-22 18:30N 23°28' E 118°45'917.5
2018-May-22 18:00N 23°21' E 118°52'918.1
2018-May-22 17:30N 23°14' E 118°57'1018.6
2018-May-22 16:59N 23°06' E 119°03'1018.2
2018-May-22 16:28N 22°58' E 119°09'816.9
2018-May-22 16:00N 22°51' E 119°12'2918.5
2018-May-22 14:26N 22°22' E 119°13'  
2018-May-19 16:03N 22°30' E 119°13'617.6
2018-May-19 15:41N 22°36' E 119°14'417.4
2018-May-19 15:26N 22°40' E 119°14'717.0
2018-May-19 15:00N 22°48' E 119°13'816.5
2018-May-19 14:30N 22°56' E 119°11'1115.6
2018-May-19 13:50N 23°04' E 119°04'715.7
2018-May-19 13:22N 23°11' E 119°00'1117.2
2018-May-19 12:44N 23°19' E 118°53'517.9
2018-May-19 12:29N 23°23' E 118°50'1118.0
2018-May-19 11:51N 23°32' E 118°43'1018.3
2018-May-19 11:18N 23°41' E 118°37'618.3
2018-May-19 10:59N 23°46' E 118°34'918.3
2018-May-19 10:30N 23°53' E 118°29'918.3
2018-May-19 10:00N 24°01' E 118°24'918.5
2018-May-19 09:30N 24°10' E 118°20'918.4
2018-May-19 09:00N 24°17' E 118°13'815.2
2018-May-19 08:30N 24°22' E 118°08'713.2
2018-May-19 08:01N 24°27' E 118°03'2 4.4
2018-May-19 07:27N 24°29' E 118°04'0 0.0
2018-May-19 06:57N 24°29' E 118°04'0 0.0
2018-May-19 06:27N 24°29' E 118°04'0 0.0
2018-May-19 05:57N 24°29' E 118°04'0 0.0
2018-May-19 05:27N 24°29' E 118°04'0 0.0
2018-May-19 04:57N 24°29' E 118°04'0 0.0
2018-May-19 04:27N 24°29' E 118°04'0 0.0
2018-May-19 03:57N 24°29' E 118°04'0 0.0
2018-May-19 03:27N 24°29' E 118°04'0 0.0
2018-May-19 02:57N 24°29' E 118°04'0 0.0
2018-May-19 02:27N 24°29' E 118°04'0 0.0
2018-May-19 01:57N 24°29' E 118°04'0 0.0
2018-May-19 01:27N 24°29' E 118°04'0 0.0
2018-May-19 00:57N 24°29' E 118°04'0 0.0
2018-May-19 00:27N 24°29' E 118°04'0 0.0
2018-May-18 23:57N 24°29' E 118°04'1 2.9
2018-May-18 23:30N 24°28' E 118°03'510.8
2018-May-18 23:01N 24°24' E 118°07'611.1
2018-May-18 22:30N 24°20' E 118°11'611.7
2018-May-18 22:00N 24°15' E 118°15'714.2
2018-May-18 21:31N 24°11' E 118°21'816.9
2018-May-18 21:00N 24°03' E 118°24'917.5
2018-May-18 20:30N 23°55' E 118°28'917.8
2018-May-18 20:00N 23°47' E 118°33'1417.8
2018-May-18 19:14N 23°35' E 118°40'417.9
2018-May-18 19:00N 23°31' E 118°42'2017.7
2018-May-18 17:53N 23°16' E 118°57'918.0
2018-May-18 17:22N 23°09' E 119°02'716.9
2018-May-18 16:56N 23°02' E 119°06'817.4
2018-May-18 16:30N 22°56' E 119°11'  
2018-May-15 10:41N 24°01' E 118°25'317.0
2018-May-15 10:30N 24°03' E 118°23'817.1
2018-May-15 10:00N 24°11' E 118°19'917.7
2018-May-15 09:30N 24°17' E 118°13'815.3
2018-May-15 09:01N 24°23' E 118°07'612.3
2018-May-15 08:30N 24°28' E 118°03'2 3.1
2018-May-15 07:59N 24°29' E 118°04'0 0.0
2018-May-15 07:26N 24°29' E 118°04'0 0.0
2018-May-15 06:59N 24°29' E 118°04'0 0.0
2018-May-15 06:23N 24°29' E 118°04'0 0.0
2018-May-15 05:59N 24°29' E 118°04'0 0.0
2018-May-15 05:29N 24°29' E 118°04'0 0.0
2018-May-15 04:56N 24°29' E 118°04'0 0.0
2018-May-15 04:26N 24°29' E 118°04'0 0.0
2018-May-15 03:59N 24°29' E 118°04'0 0.0
2018-May-15 03:29N 24°29' E 118°04'0 0.0
2018-May-15 02:56N 24°29' E 118°04'0 0.0
2018-May-15 02:29N 24°29' E 118°04'0 0.0
2018-May-15 01:59N 24°29' E 118°04'0 0.0
2018-May-15 01:26N 24°29' E 118°04'0 0.0
2018-May-15 00:59N 24°29' E 118°04'0 0.0
2018-May-15 00:29N 24°29' E 118°04'0 0.0
2018-May-14 23:59N 24°29' E 118°04'0 0.4
2018-May-14 23:30N 24°29' E 118°04'5 9.2
2018-May-14 23:00N 24°25' E 118°05'612.9
2018-May-14 22:30N 24°20' E 118°10'612.0
2018-May-14 22:01N 24°16' E 118°15'611.8
2018-May-14 21:30N 24°14' E 118°21'612.0
2018-May-14 21:00N 24°14' E 118°27'612.1
2018-May-14 20:30N 24°15' E 118°34'612.1
2018-May-14 20:00N 24°17' E 118°40'611.8
2018-May-14 19:30N 24°19' E 118°46'611.6
2018-May-14 19:00N 24°20' E 118°52'611.7
2018-May-14 18:29N 24°22' E 118°59'611.3
2018-May-14 18:00N 24°21' E 119°05'611.7
2018-May-14 17:30N 24°18' E 119°10'611.6
2018-May-14 16:59N 24°15' E 119°16'611.7
2018-May-14 16:29N 24°12' E 119°22'611.0
2018-May-14 15:55N 24°14' E 119°28'2612.2
2018-May-14 13:47N 24°31' E 119°50'511.8
2018-May-14 13:20N 24°34' E 119°55'1911.1
2018-May-14 11:37N 24°51' E 120°04'111.6
2018-May-14 11:30N 24°52' E 120°05'611.4
2018-May-14 11:00N 24°54' E 120°11'3211.1
2018-May-14 08:07N 25°08' E 120°43'110.7
2018-May-14 08:00N 25°09' E 120°44'50 9.7
2018-May-14 02:52N 25°32' E 121°33'411.2
2018-May-14 02:30N 25°31' E 121°37'510.9
2018-May-14 02:00N 25°29' E 121°43'611.5
2018-May-14 01:30N 25°27' E 121°48'612.6
2018-May-14 01:00N 25°23' E 121°54'612.6
2018-May-14 00:31N 25°20' E 122°00'612.9
2018-May-14 00:00N 25°17' E 122°06'611.9
2018-May-13 23:30N 25°13' E 122°12'  
Track history (hours):
 
Tides and Currents Weather Stations Pressure Air Temp Water Temp Dewpoint Dewpoint Depression Visibility Wind Speed Wind Dir Waves Ship Positions

Celebrity Century

Last reported at 2018-May-23 17:41 UTC. Time now 2018-May-24 13:55 UTC.
Position N 24°21' E 118°49'.

Length 251 m; draft 8 m.

Type: Ship. MMSI: 249054000.

Date/timePositionNaut miles runAvg speedWind from/ knotsBaromVisibWave heightAir tempDewpointWater temp
2018-May-23 17:41N 24°21' E 118°49'317.1
2018-May-23 17:30N 24°20' E 118°46'917.3
2018-May-23 17:00N 24°18' E 118°37'816.9
2018-May-23 16:30N 24°14' E 118°29'816.7
2018-May-23 16:00N 24°16' E 118°20'815.7
2018-May-23 15:30N 24°19' E 118°12'714.5
2018-May-23 15:00N 24°24' E 118°06'510.3
2018-May-23 14:30N 24°28' E 118°03'1 2.8
2018-May-23 13:59N 24°29' E 118°04'2 4.4
2018-May-23 13:30N 24°28' E 118°03'612.4
2018-May-23 13:00N 24°23' E 118°07'713.3
2018-May-23 12:30N 24°18' E 118°12'917.6
2018-May-23 12:00N 24°16' E 118°22'918.4
2018-May-23 11:30N 24°15' E 118°32'4 7.1
2018-May-23 10:54N 24°17' E 118°36'513.4
2018-May-23 10:30N 24°15' E 118°31'713.5
2018-May-23 10:00N 24°15' E 118°23'714.7
2018-May-23 09:30N 24°17' E 118°16'713.2
2018-May-23 09:00N 24°21' E 118°10'4 8.7
2018-May-23 08:30N 24°24' E 118°06'510.6
2018-May-23 08:00N 24°28' E 118°03'1 2.6
2018-May-23 07:29N 24°29' E 118°04'0 0.0
2018-May-23 06:59N 24°29' E 118°04'0 0.0
2018-May-23 06:26N 24°29' E 118°04'0 0.0
2018-May-23 05:59N 24°29' E 118°04'0 0.0
2018-May-23 05:29N 24°29' E 118°04'0 0.0
2018-May-23 04:59N 24°29' E 118°04'0 0.0
2018-May-23 04:29N 24°29' E 118°04'0 0.0
2018-May-23 03:59N 24°29' E 118°04'0 0.0
2018-May-23 03:26N 24°29' E 118°04'0 0.0
2018-May-23 02:59N 24°29' E 118°04'0 0.0
2018-May-23 02:26N 24°29' E 118°04'0 0.0
2018-May-23 01:59N 24°29' E 118°04'0 0.0
2018-May-23 01:29N 24°29' E 118°04'0 0.0
2018-May-23 00:56N 24°29' E 118°04'0 0.0
2018-May-23 00:26N 24°29' E 118°04'0 0.0
2018-May-22 23:59N 24°29' E 118°04'0 0.0
2018-May-22 23:30N 24°29' E 118°04'4 7.3
2018-May-22 23:01N 24°26' E 118°04'713.3
2018-May-22 22:30N 24°21' E 118°09'714.5
2018-May-22 22:00N 24°16' E 118°14'713.0
2018-May-22 21:31N 24°11' E 118°19'815.9
2018-May-22 21:00N 24°04' E 118°23'816.5
2018-May-22 20:31N 23°56' E 118°26'816.7
2018-May-22 20:00N 23°50' E 118°32'816.8
2018-May-22 19:30N 23°43' E 118°37'917.3
2018-May-22 19:00N 23°35' E 118°42'816.7
2018-May-22 18:30N 23°28' E 118°45'917.5
2018-May-22 18:00N 23°21' E 118°52'918.1
2018-May-22 17:30N 23°14' E 118°57'1018.6
2018-May-22 16:59N 23°06' E 119°03'1018.2
2018-May-22 16:28N 22°58' E 119°09'816.9
2018-May-22 16:00N 22°51' E 119°12'2918.5
2018-May-22 14:26N 22°22' E 119°13'  
2018-May-19 16:03N 22°30' E 119°13'617.6
2018-May-19 15:41N 22°36' E 119°14'417.4
2018-May-19 15:26N 22°40' E 119°14'717.0
2018-May-19 15:00N 22°48' E 119°13'816.5
2018-May-19 14:30N 22°56' E 119°11'1115.6
2018-May-19 13:50N 23°04' E 119°04'715.7
2018-May-19 13:22N 23°11' E 119°00'1117.2
2018-May-19 12:44N 23°19' E 118°53'517.9
2018-May-19 12:29N 23°23' E 118°50'1118.0
2018-May-19 11:51N 23°32' E 118°43'1018.3
2018-May-19 11:18N 23°41' E 118°37'618.3
2018-May-19 10:59N 23°46' E 118°34'918.3
2018-May-19 10:30N 23°53' E 118°29'918.3
2018-May-19 10:00N 24°01' E 118°24'918.5
2018-May-19 09:30N 24°10' E 118°20'918.4
2018-May-19 09:00N 24°17' E 118°13'815.2
2018-May-19 08:30N 24°22' E 118°08'713.2
2018-May-19 08:01N 24°27' E 118°03'2 4.4
2018-May-19 07:27N 24°29' E 118°04'0 0.0
2018-May-19 06:57N 24°29' E 118°04'0 0.0
2018-May-19 06:27N 24°29' E 118°04'0 0.0
2018-May-19 05:57N 24°29' E 118°04'0 0.0
2018-May-19 05:27N 24°29' E 118°04'0 0.0
2018-May-19 04:57N 24°29' E 118°04'0 0.0
2018-May-19 04:27N 24°29' E 118°04'0 0.0
2018-May-19 03:57N 24°29' E 118°04'0 0.0
2018-May-19 03:27N 24°29' E 118°04'0 0.0
2018-May-19 02:57N 24°29' E 118°04'0 0.0
2018-May-19 02:27N 24°29' E 118°04'0 0.0
2018-May-19 01:57N 24°29' E 118°04'0 0.0
2018-May-19 01:27N 24°29' E 118°04'0 0.0
2018-May-19 00:57N 24°29' E 118°04'0 0.0
2018-May-19 00:27N 24°29' E 118°04'0 0.0
2018-May-18 23:57N 24°29' E 118°04'1 2.9
2018-May-18 23:30N 24°28' E 118°03'510.8
2018-May-18 23:01N 24°24' E 118°07'611.1
2018-May-18 22:30N 24°20' E 118°11'611.7
2018-May-18 22:00N 24°15' E 118°15'714.2
2018-May-18 21:31N 24°11' E 118°21'816.9
2018-May-18 21:00N 24°03' E 118°24'917.5
2018-May-18 20:30N 23°55' E 118°28'917.8
2018-May-18 20:00N 23°47' E 118°33'1417.8
2018-May-18 19:14N 23°35' E 118°40'417.9
2018-May-18 19:00N 23°31' E 118°42'2017.7
2018-May-18 17:53N 23°16' E 118°57'918.0
2018-May-18 17:22N 23°09' E 119°02'716.9
2018-May-18 16:56N 23°02' E 119°06'817.4
2018-May-18 16:30N 22°56' E 119°11'  
2018-May-15 10:41N 24°01' E 118°25'317.0
2018-May-15 10:30N 24°03' E 118°23'817.1
2018-May-15 10:00N 24°11' E 118°19'917.7
2018-May-15 09:30N 24°17' E 118°13'815.3
2018-May-15 09:01N 24°23' E 118°07'612.3
2018-May-15 08:30N 24°28' E 118°03'2 3.1
2018-May-15 07:59N 24°29' E 118°04'0 0.0
2018-May-15 07:26N 24°29' E 118°04'0 0.0
2018-May-15 06:59N 24°29' E 118°04'0 0.0
2018-May-15 06:23N 24°29' E 118°04'0 0.0
2018-May-15 05:59N 24°29' E 118°04'0 0.0
2018-May-15 05:29N 24°29' E 118°04'0 0.0
2018-May-15 04:56N 24°29' E 118°04'0 0.0
2018-May-15 04:26N 24°29' E 118°04'0 0.0
2018-May-15 03:59N 24°29' E 118°04'0 0.0
2018-May-15 03:29N 24°29' E 118°04'0 0.0
2018-May-15 02:56N 24°29' E 118°04'0 0.0
2018-May-15 02:29N 24°29' E 118°04'0 0.0
2018-May-15 01:59N 24°29' E 118°04'0 0.0
2018-May-15 01:26N 24°29' E 118°04'0 0.0
2018-May-15 00:59N 24°29' E 118°04'0 0.0
2018-May-15 00:29N 24°29' E 118°04'0 0.0
2018-May-14 23:59N 24°29' E 118°04'0 0.4
2018-May-14 23:30N 24°29' E 118°04'5 9.2
2018-May-14 23:00N 24°25' E 118°05'612.9
2018-May-14 22:30N 24°20' E 118°10'612.0
2018-May-14 22:01N 24°16' E 118°15'611.8
2018-May-14 21:30N 24°14' E 118°21'612.0
2018-May-14 21:00N 24°14' E 118°27'612.1
2018-May-14 20:30N 24°15' E 118°34'612.1
2018-May-14 20:00N 24°17' E 118°40'611.8
2018-May-14 19:30N 24°19' E 118°46'611.6
2018-May-14 19:00N 24°20' E 118°52'611.7
2018-May-14 18:29N 24°22' E 118°59'611.3
2018-May-14 18:00N 24°21' E 119°05'611.7
2018-May-14 17:30N 24°18' E 119°10'611.6
2018-May-14 16:59N 24°15' E 119°16'611.7
2018-May-14 16:29N 24°12' E 119°22'611.0
2018-May-14 15:55N 24°14' E 119°28'2612.2
2018-May-14 13:47N 24°31' E 119°50'511.8
2018-May-14 13:20N 24°34' E 119°55'1911.1
2018-May-14 11:37N 24°51' E 120°04'111.6
2018-May-14 11:30N 24°52' E 120°05'611.4
2018-May-14 11:00N 24°54' E 120°11'3211.1
2018-May-14 08:07N 25°08' E 120°43'110.7
2018-May-14 08:00N 25°09' E 120°44'50 9.7
2018-May-14 02:52N 25°32' E 121°33'411.2
2018-May-14 02:30N 25°31' E 121°37'510.9
2018-May-14 02:00N 25°29' E 121°43'611.5
2018-May-14 01:30N 25°27' E 121°48'612.6
2018-May-14 01:00N 25°23' E 121°54'612.6
2018-May-14 00:31N 25°20' E 122°00'612.9
2018-May-14 00:00N 25°17' E 122°06'611.9
2018-May-13 23:30N 25°13' E 122°12'  

Dump ship's entire track history